createdAt,value
2019-02-25T00:01:35.217Z,2.26
2019-02-25T00:04:04.624Z,2.24
2019-02-25T00:06:32.714Z,2.17
2019-02-25T00:09:00.916Z,2.13
2019-02-25T00:11:29.308Z,2.14
2019-02-25T00:13:57.359Z,2.11
2019-02-25T00:16:25.925Z,2.16
2019-02-25T00:18:54.016Z,2.10
2019-02-25T00:21:22.418Z,1.90
2019-02-25T00:23:50.546Z,1.96
2019-02-25T00:26:18.771Z,1.78
2019-02-25T00:28:46.897Z,1.78
2019-02-25T00:31:14.976Z,1.73
2019-02-25T00:33:43.074Z,1.54
2019-02-25T00:36:11.176Z,1.86
2019-02-25T00:38:39.245Z,1.90
2019-02-25T00:41:07.543Z,1.88
2019-02-25T00:43:36.019Z,1.96
2019-02-25T00:46:04.998Z,1.90
2019-02-25T00:48:33.487Z,1.79
2019-02-25T00:51:01.720Z,1.83
2019-02-25T00:53:29.848Z,1.85
2019-02-25T00:55:58.110Z,1.81
2019-02-25T00:58:26.208Z,1.68
2019-02-25T01:00:54.249Z,1.82
2019-02-25T01:03:22.401Z,1.96
2019-02-25T01:05:50.747Z,2.00
2019-02-25T01:08:18.876Z,1.99
2019-02-25T01:10:47.263Z,1.85
2019-02-25T01:13:15.381Z,1.82
2019-02-25T01:15:43.448Z,1.85
2019-02-25T01:18:11.642Z,1.79
2019-02-25T01:20:42.035Z,1.76
2019-02-25T01:23:10.212Z,1.75
2019-02-25T01:25:38.348Z,1.57
2019-02-25T01:28:06.972Z,1.54
2019-02-25T01:30:36.426Z,1.65
2019-02-25T01:33:05.044Z,1.68
2019-02-25T01:35:34.200Z,1.46
2019-02-25T01:38:04.195Z,1.23
2019-02-25T01:40:33.594Z,1.16
2019-02-25T01:43:01.833Z,0.95
2019-02-25T01:45:30.294Z,1.05
2019-02-25T01:47:58.659Z,1.10
2019-02-25T01:50:26.763Z,1.22
2019-02-25T01:52:54.890Z,1.38
2019-02-25T01:55:23.007Z,1.39
2019-02-25T01:57:51.321Z,1.43
2019-02-25T02:00:19.443Z,1.45
2019-02-25T02:02:48.005Z,1.43
2019-02-25T02:05:17.121Z,1.47
2019-02-25T02:07:45.575Z,1.34
2019-02-25T02:10:14.308Z,1.38
2019-02-25T02:12:43.205Z,1.40
2019-02-25T02:15:13.537Z,1.57
2019-02-25T02:17:42.107Z,1.43
2019-02-25T02:20:13.469Z,1.30
2019-02-25T02:22:41.508Z,1.24
2019-02-25T02:25:10.109Z,0.99
2019-02-25T02:27:38.191Z,1.17
2019-02-25T02:30:10.515Z,1.33
2019-02-25T02:32:38.958Z,1.34
2019-02-25T02:35:07.765Z,1.24
2019-02-25T02:37:37.151Z,1.31
2019-02-25T02:40:06.824Z,1.24
2019-02-25T02:42:34.929Z,0.98
2019-02-25T02:45:33.461Z,1.22
2019-02-25T02:48:33.119Z,1.16
2019-02-25T02:51:01.646Z,1.17
2019-02-25T02:53:30.174Z,1.05
2019-02-25T02:55:58.529Z,0.91
2019-02-25T02:58:27.275Z,0.92
2019-02-25T03:00:56.005Z,0.88
2019-02-25T03:03:25.190Z,0.87
2019-02-25T03:05:53.703Z,0.77
2019-02-25T03:08:21.820Z,0.98
2019-02-25T03:10:49.914Z,0.81
2019-02-25T03:13:18.259Z,0.74
2019-02-25T03:15:46.487Z,0.78
2019-02-25T03:18:14.566Z,0.65
2019-02-25T03:20:42.819Z,0.69
2019-02-25T03:23:10.994Z,0.63
2019-02-25T03:25:39.700Z,0.66
2019-02-25T03:28:08.424Z,0.69
2019-02-25T03:30:36.613Z,0.77
2019-02-25T03:33:05.538Z,0.71
2019-02-25T03:35:33.919Z,0.68
2019-02-25T03:38:02.136Z,0.79
2019-02-25T03:40:30.202Z,0.82
2019-02-25T03:42:59.247Z,0.88
2019-02-25T03:45:27.360Z,0.57
2019-02-25T03:47:55.504Z,0.63
2019-02-25T03:50:23.880Z,0.71
2019-02-25T03:52:52.000Z,0.81
2019-02-25T03:55:20.881Z,0.58
2019-02-25T03:57:49.614Z,0.49
2019-02-25T04:00:20.699Z,0.54
2019-02-25T04:02:49.165Z,0.62
2019-02-25T04:05:17.385Z,0.58
2019-02-25T04:07:45.554Z,0.31
2019-02-25T04:10:15.179Z,0.32
2019-02-25T04:12:43.689Z,0.54
2019-02-25T04:15:16.563Z,0.60
2019-02-25T04:17:46.451Z,0.66
2019-02-25T04:20:15.031Z,0.63
2019-02-25T04:22:43.096Z,0.69
2019-02-25T04:25:11.375Z,0.53
2019-02-25T04:27:39.636Z,0.56
2019-02-25T04:30:11.651Z,0.75
2019-02-25T04:32:40.692Z,0.74
2019-02-25T04:35:11.540Z,0.44
2019-02-25T04:37:40.436Z,-0.02
2019-02-25T04:40:10.606Z,0.54
2019-02-25T04:42:40.531Z,0.42
2019-02-25T04:45:13.325Z,-0.07
2019-02-25T04:47:41.511Z,-0.09
2019-02-25T04:50:10.682Z,0.04
2019-02-25T04:52:38.871Z,0.23
2019-02-25T04:55:08.240Z,0.28
2019-02-25T04:57:36.385Z,0.16
2019-02-25T05:00:09.245Z,0.16
2019-02-25T05:02:37.379Z,0.15
2019-02-25T05:05:05.596Z,0.11
2019-02-25T05:07:33.836Z,0.09
2019-02-25T05:10:02.234Z,0.22
2019-02-25T05:12:30.383Z,0.27
2019-02-25T05:14:58.592Z,0.23
2019-02-25T05:17:26.700Z,0.21
2019-02-25T05:19:54.785Z,0.06
2019-02-25T05:22:23.666Z,0.06
2019-02-25T05:24:52.761Z,-0.03
2019-02-25T05:27:21.342Z,0.03
2019-02-25T05:29:49.454Z,-0.23
2019-02-25T05:32:17.871Z,-0.30
2019-02-25T05:34:46.922Z,-0.25
2019-02-25T05:37:15.282Z,-0.41
2019-02-25T05:39:43.559Z,-0.33
2019-02-25T05:42:12.082Z,-0.34
2019-02-25T05:44:40.218Z,-0.07
2019-02-25T05:47:08.553Z,-0.21
2019-02-25T05:49:36.680Z,-0.21
2019-02-25T05:52:04.875Z,-0.24
2019-02-25T05:54:32.967Z,-0.07
2019-02-25T05:57:01.131Z,-0.09
2019-02-25T05:59:30.199Z,-0.07
2019-02-25T06:01:58.607Z,-0.10
2019-02-25T06:04:27.685Z,-0.04
2019-02-25T06:06:57.582Z,0.01
2019-02-25T06:09:25.642Z,0.10
2019-02-25T06:11:53.876Z,-0.07
2019-02-25T06:14:21.953Z,-0.11
2019-02-25T06:16:50.385Z,-0.04
2019-02-25T06:19:18.988Z,-0.22
2019-02-25T06:21:47.823Z,-0.16
2019-02-25T06:24:16.887Z,-0.14
2019-02-25T06:26:46.631Z,-0.16
2019-02-25T06:29:15.135Z,-0.06
2019-02-25T06:31:43.239Z,-0.12
2019-02-25T06:34:11.924Z,-0.22
2019-02-25T06:36:40.051Z,-0.20
2019-02-25T06:39:08.753Z,-0.21
2019-02-25T06:41:37.127Z,-0.13
2019-02-25T06:44:05.338Z,-0.19
2019-02-25T06:46:33.665Z,-0.15
2019-02-25T06:49:02.291Z,-0.31
2019-02-25T06:51:30.510Z,-0.41
2019-02-25T06:53:59.224Z,-0.45
2019-02-25T06:56:27.640Z,-0.24
2019-02-25T06:58:56.481Z,-0.08
2019-02-25T07:01:24.662Z,-0.13
2019-02-25T07:04:20.542Z,-0.07
2019-02-25T07:07:02.257Z,-0.01
2019-02-25T07:09:55.711Z,0.07
2019-02-25T07:12:29.478Z,0.17
2019-02-25T07:15:09.183Z,0.20
2019-02-25T07:17:55.990Z,0.19
2019-02-25T07:20:36.051Z,0.13
2019-02-25T07:23:33.774Z,0.35
2019-02-25T07:26:24.827Z,0.54
2019-02-25T07:29:12.974Z,0.56
2019-02-25T07:32:09.858Z,0.61
2019-02-25T07:35:00.710Z,0.74
2019-02-25T07:37:47.128Z,0.80
2019-02-25T07:40:37.673Z,0.94
2019-02-25T07:43:28.140Z,1.20
2019-02-25T07:46:14.799Z,1.19
2019-02-25T07:49:02.420Z,1.29
2019-02-25T07:51:36.250Z,1.44
2019-02-25T07:54:30.070Z,1.58
2019-02-25T07:57:13.650Z,1.70
2019-02-25T08:00:07.370Z,1.71
2019-02-25T08:02:44.771Z,1.97
2019-02-25T08:05:42.385Z,2.16
2019-02-25T08:08:39.882Z,2.40
2019-02-25T08:11:24.125Z,2.56
2019-02-25T08:14:18.634Z,2.65
2019-02-25T08:17:01.195Z,2.60
2019-02-25T08:19:47.647Z,2.61
2019-02-25T08:22:28.371Z,2.84
2019-02-25T08:25:19.286Z,2.95
2019-02-25T08:28:07.117Z,3.09
2019-02-25T08:31:01.073Z,3.45
2019-02-25T08:33:58.459Z,3.64
2019-02-25T08:37:38.138Z,3.74
2019-02-25T08:40:44.975Z,3.86
2019-02-25T08:43:24.176Z,4.12
2019-02-25T08:46:21.304Z,4.24
2019-02-25T08:49:17.988Z,4.37
2019-02-25T08:51:46.163Z,4.49
2019-02-25T08:54:14.421Z,4.72
2019-02-25T08:56:42.494Z,4.88
2019-02-25T08:59:11.245Z,5.04
2019-02-25T09:01:39.763Z,5.19
2019-02-25T09:04:07.883Z,5.32
2019-02-25T09:06:36.471Z,5.42
2019-02-25T09:09:05.825Z,5.60
2019-02-25T09:11:34.206Z,5.72
2019-02-25T09:14:02.295Z,5.88
2019-02-25T09:16:30.417Z,6.01
2019-02-25T09:18:58.600Z,6.14
2019-02-25T09:21:31.772Z,6.29
2019-02-25T09:23:57.039Z,6.45
2019-02-25T09:26:25.204Z,6.57
2019-02-25T09:28:53.425Z,6.68
2019-02-25T09:31:21.607Z,6.82
2019-02-25T09:33:49.640Z,6.96
2019-02-25T09:36:17.885Z,7.02
2019-02-25T09:38:45.941Z,7.14
2019-02-25T09:41:14.987Z,7.24
2019-02-25T09:43:43.130Z,7.30
2019-02-25T09:46:11.401Z,7.43
2019-02-25T09:48:39.860Z,7.64
2019-02-25T09:51:07.957Z,7.75
2019-02-25T09:53:36.077Z,7.76
2019-02-25T09:56:05.131Z,7.81
2019-02-25T09:58:33.233Z,7.96
2019-02-25T10:01:01.353Z,8.07
2019-02-25T10:03:29.550Z,8.10
2019-02-25T10:05:57.708Z,8.30
2019-02-25T10:08:25.995Z,8.30
2019-02-25T10:10:54.390Z,8.33
2019-02-25T10:13:22.836Z,8.30
2019-02-25T10:15:51.152Z,8.39
2019-02-25T10:18:19.308Z,8.76
2019-02-25T10:20:47.403Z,9.02
2019-02-25T10:23:15.552Z,9.21
2019-02-25T10:25:44.295Z,9.24
2019-02-25T10:28:12.428Z,9.26
2019-02-25T10:30:40.504Z,9.43
2019-02-25T10:33:08.668Z,9.42
2019-02-25T10:35:36.785Z,9.68
2019-02-25T10:38:05.119Z,9.77
2019-02-25T10:40:33.640Z,9.87
2019-02-25T10:43:01.838Z,9.87
2019-02-25T10:45:30.783Z,9.97
2019-02-25T10:47:58.995Z,10.04
2019-02-25T10:50:28.830Z,10.11
2019-02-25T10:53:03.433Z,10.25
2019-02-25T10:55:32.911Z,10.47
2019-02-25T10:58:02.097Z,10.72
2019-02-25T11:00:31.349Z,10.57
2019-02-25T11:02:59.446Z,10.77
2019-02-25T11:05:30.333Z,11.08
2019-02-25T11:07:58.543Z,11.06
2019-02-25T11:10:31.248Z,11.14
2019-02-25T11:13:01.994Z,11.35
2019-02-25T11:15:32.091Z,11.20
2019-02-25T11:18:00.195Z,11.21
2019-02-25T11:20:29.333Z,11.30
2019-02-25T11:22:58.457Z,11.46
2019-02-25T11:25:28.454Z,11.71
2019-02-25T11:27:56.597Z,11.77
2019-02-25T11:30:24.782Z,11.92
2019-02-25T11:32:55.427Z,11.84
2019-02-25T11:35:23.167Z,11.78
2019-02-25T11:37:51.940Z,11.84
2019-02-25T11:40:21.396Z,11.88
2019-02-25T11:42:50.532Z,11.87
2019-02-25T11:45:19.249Z,11.94
2019-02-25T11:47:47.369Z,12.00
2019-02-25T11:50:15.587Z,12.09
2019-02-25T11:52:43.700Z,12.19
2019-02-25T11:55:12.351Z,12.22
2019-02-25T11:57:40.613Z,12.28
2019-02-25T12:00:16.089Z,12.32
2019-02-25T12:02:44.358Z,12.31
2019-02-25T12:05:14.336Z,12.30
2019-02-25T12:07:49.519Z,12.30
2019-02-25T12:10:17.720Z,12.17
2019-02-25T12:12:46.065Z,12.30
2019-02-25T12:15:14.764Z,12.41
2019-02-25T12:17:43.005Z,12.46
2019-02-25T12:20:11.910Z,12.26
2019-02-25T12:22:39.999Z,12.31
2019-02-25T12:25:09.659Z,12.29
2019-02-25T12:27:37.727Z,12.84
2019-02-25T12:30:11.170Z,12.73
2019-02-25T12:32:39.284Z,12.60
2019-02-25T12:35:08.057Z,12.64
2019-02-25T12:37:36.155Z,12.80
2019-02-25T12:40:04.982Z,12.82
2019-02-25T12:42:33.108Z,12.93
2019-02-25T12:45:01.242Z,12.86
2019-02-25T12:47:29.316Z,12.77
2019-02-25T12:49:58.239Z,12.95
2019-02-25T12:52:26.341Z,12.76
2019-02-25T12:54:54.473Z,12.84
2019-02-25T12:57:22.532Z,13.05
2019-02-25T12:59:50.626Z,13.13
2019-02-25T13:02:18.997Z,13.19
2019-02-25T13:04:47.133Z,13.27
2019-02-25T13:07:15.361Z,13.44
2019-02-25T13:09:43.451Z,13.39
2019-02-25T13:12:11.554Z,13.36
2019-02-25T13:14:39.651Z,13.38
2019-02-25T13:17:07.783Z,13.58
2019-02-25T13:19:35.908Z,13.50
2019-02-25T13:22:04.206Z,13.40
2019-02-25T13:24:32.748Z,13.70
2019-02-25T13:27:03.170Z,13.69
2019-02-25T13:29:31.995Z,13.65
2019-02-25T13:32:00.196Z,13.61
2019-02-25T13:34:28.270Z,13.41
2019-02-25T13:36:57.099Z,13.35
2019-02-25T13:39:25.479Z,13.72
2019-02-25T13:41:53.729Z,13.79
2019-02-25T13:44:21.974Z,13.90
2019-02-25T13:46:50.170Z,13.99
2019-02-25T13:49:18.951Z,13.84
2019-02-25T13:51:47.057Z,13.62
2019-02-25T13:54:15.283Z,13.99
2019-02-25T13:56:43.564Z,14.03
2019-02-25T13:59:12.194Z,13.60
2019-02-25T14:01:40.378Z,13.65
2019-02-25T14:04:08.632Z,13.75
2019-02-25T14:06:36.804Z,13.79
2019-02-25T14:09:08.056Z,13.88
2019-02-25T14:11:36.419Z,13.67
2019-02-25T14:14:04.619Z,13.66
2019-02-25T14:16:32.807Z,13.93
2019-02-25T14:19:01.027Z,13.68
2019-02-25T14:21:29.180Z,13.67
2019-02-25T14:23:57.659Z,13.56
2019-02-25T14:26:27.657Z,13.47
2019-02-25T14:28:55.753Z,13.74
2019-02-25T14:31:24.082Z,13.77
2019-02-25T14:33:52.479Z,13.61
2019-02-25T14:36:20.955Z,13.50
2019-02-25T14:38:49.451Z,13.58
2019-02-25T14:41:18.531Z,13.69
2019-02-25T14:43:49.613Z,13.60
2019-02-25T14:46:21.834Z,13.97
2019-02-25T14:48:47.763Z,14.08
2019-02-25T14:51:16.084Z,14.12
2019-02-25T14:53:45.190Z,14.03
2019-02-25T14:56:14.359Z,14.19
2019-02-25T14:58:43.137Z,14.23
2019-02-25T15:01:12.789Z,13.82
2019-02-25T15:03:40.865Z,13.44
2019-02-25T15:06:10.163Z,13.58
2019-02-25T15:08:38.264Z,13.52
2019-02-25T15:11:08.682Z,13.26
2019-02-25T15:13:37.600Z,13.35
2019-02-25T15:16:06.786Z,13.58
2019-02-25T15:18:35.170Z,13.20
2019-02-25T15:21:06.878Z,13.43
2019-02-25T15:23:36.371Z,13.38
2019-02-25T15:26:05.549Z,13.07
2019-02-25T15:28:34.711Z,13.17
2019-02-25T15:31:04.419Z,13.04
2019-02-25T15:33:33.626Z,12.94
2019-02-25T15:36:03.335Z,12.74
2019-02-25T15:38:33.146Z,12.87
2019-02-25T15:41:02.152Z,12.73
2019-02-25T15:43:31.862Z,12.56
2019-02-25T15:46:00.345Z,12.70
2019-02-25T15:48:29.031Z,12.79
2019-02-25T15:51:00.636Z,12.58
2019-02-25T15:53:28.724Z,12.74
2019-02-25T15:55:59.308Z,12.52
2019-02-25T15:58:27.204Z,12.36
2019-02-25T16:00:55.655Z,12.35
2019-02-25T16:03:24.484Z,12.38
2019-02-25T16:05:57.203Z,12.73
2019-02-25T16:08:23.837Z,13.14
2019-02-25T16:10:55.598Z,13.50
2019-02-25T16:13:24.050Z,13.61
2019-02-25T16:15:52.166Z,13.50
2019-02-25T16:18:20.463Z,13.19
2019-02-25T16:20:48.662Z,12.92
2019-02-25T16:23:16.773Z,12.57
2019-02-25T16:25:46.165Z,12.26
2019-02-25T16:28:17.318Z,12.06
2019-02-25T16:30:46.839Z,11.83
2019-02-25T16:33:15.785Z,11.72
2019-02-25T16:35:45.641Z,12.28
2019-02-25T16:38:14.307Z,11.81
2019-02-25T16:40:42.484Z,11.43
2019-02-25T16:43:12.700Z,11.22
2019-02-25T16:45:42.565Z,11.02
2019-02-25T16:48:10.966Z,11.04
2019-02-25T16:50:41.608Z,10.94
2019-02-25T16:53:12.726Z,10.68
2019-02-25T16:55:42.163Z,10.56
2019-02-25T16:58:13.060Z,10.41
2019-02-25T17:00:41.896Z,10.30
2019-02-25T17:03:11.145Z,10.25
2019-02-25T17:05:42.104Z,10.16
2019-02-25T17:08:14.323Z,10.04
2019-02-25T17:10:42.695Z,9.87
2019-02-25T17:13:14.315Z,9.74
2019-02-25T17:15:41.649Z,9.61
2019-02-25T17:18:15.131Z,9.45
2019-02-25T17:20:42.190Z,9.34
2019-02-25T17:23:10.306Z,9.25
2019-02-25T17:25:40.784Z,9.21
2019-02-25T17:28:14.371Z,9.05
2019-02-25T17:30:40.686Z,8.92
2019-02-25T17:33:10.532Z,8.80
2019-02-25T17:35:39.654Z,8.66
2019-02-25T17:38:08.067Z,8.56
2019-02-25T17:40:36.214Z,8.50
2019-02-25T17:43:04.815Z,8.46
2019-02-25T17:45:34.435Z,8.41
2019-02-25T17:48:08.057Z,8.38
2019-02-25T17:50:35.329Z,8.34
2019-02-25T17:53:05.119Z,8.26
2019-02-25T17:55:36.279Z,8.15
2019-02-25T17:58:05.708Z,8.05
2019-02-25T18:00:39.588Z,7.97
2019-02-25T18:03:10.933Z,7.89
2019-02-25T18:05:40.760Z,7.77
2019-02-25T18:08:14.542Z,7.67
2019-02-25T18:10:40.732Z,7.60
2019-02-25T18:13:10.935Z,7.52
2019-02-25T18:15:39.200Z,7.46
2019-02-25T18:18:09.271Z,7.39
2019-02-25T18:20:38.973Z,7.35
2019-02-25T18:23:07.288Z,7.27
2019-02-25T18:25:37.689Z,7.21
2019-02-25T18:28:06.309Z,7.16
2019-02-25T18:30:36.523Z,7.11
2019-02-25T18:33:05.447Z,7.08
2019-02-25T18:35:36.356Z,7.03
2019-02-25T18:38:05.364Z,6.99
2019-02-25T18:40:35.891Z,6.96
2019-02-25T18:43:06.550Z,6.89
2019-02-25T18:45:36.150Z,6.89
2019-02-25T18:48:06.751Z,6.93
2019-02-25T18:50:35.432Z,7.00
2019-02-25T18:53:04.063Z,6.96
2019-02-25T18:55:34.221Z,6.86
2019-02-25T18:58:05.107Z,6.82
2019-02-25T19:00:36.353Z,6.77
2019-02-25T19:03:05.641Z,6.67
2019-02-25T19:05:34.239Z,6.61
2019-02-25T19:08:14.436Z,6.54
2019-02-25T19:10:43.419Z,6.45
2019-02-25T19:13:10.964Z,6.37
2019-02-25T19:15:39.482Z,6.27
2019-02-25T19:18:09.435Z,6.22
2019-02-25T19:20:38.871Z,6.19
2019-02-25T19:23:10.190Z,6.13
2019-02-25T19:25:38.248Z,6.08
2019-02-25T19:28:07.167Z,6.05
2019-02-25T19:30:35.488Z,6.02
2019-02-25T19:33:10.994Z,5.88
2019-02-25T19:35:36.031Z,5.82
2019-02-25T19:38:05.839Z,5.75
2019-02-25T19:40:38.261Z,5.69
2019-02-25T19:43:06.067Z,5.60
2019-02-25T19:45:36.252Z,5.56
2019-02-25T19:48:05.355Z,5.49
2019-02-25T19:50:35.281Z,5.41
2019-02-25T19:53:07.001Z,5.37
2019-02-25T19:55:36.265Z,5.35
2019-02-25T19:58:05.041Z,5.30
2019-02-25T20:00:35.349Z,5.27
2019-02-25T20:03:06.147Z,5.18
2019-02-25T20:05:33.435Z,5.11
2019-02-25T20:08:01.677Z,5.05
2019-02-25T20:10:30.768Z,5.01
2019-02-25T20:12:59.703Z,5.08
2019-02-25T20:15:27.809Z,5.12
2019-02-25T20:17:55.902Z,4.96
2019-02-25T20:20:27.308Z,4.90
2019-02-25T20:22:57.336Z,4.83
2019-02-25T20:25:26.564Z,4.91
2019-02-25T20:27:57.407Z,4.80
2019-02-25T20:30:27.734Z,4.74
2019-02-25T20:32:56.030Z,4.67
2019-02-25T20:35:25.110Z,4.66
2019-02-25T20:37:55.679Z,4.63
2019-02-25T20:40:26.713Z,4.58
2019-02-25T20:42:55.974Z,4.57
2019-02-25T20:45:25.246Z,4.51
2019-02-25T20:47:55.157Z,4.47
2019-02-25T20:50:24.401Z,4.44
2019-02-25T20:52:52.433Z,4.41
2019-02-25T20:55:20.596Z,4.40
2019-02-25T20:57:48.842Z,4.40
2019-02-25T21:00:19.518Z,4.36
2019-02-25T21:02:47.928Z,4.32
2019-02-25T21:05:16.842Z,4.31
2019-02-25T21:07:47.743Z,4.28
2019-02-25T21:10:16.560Z,4.28
2019-02-25T21:12:44.638Z,4.20
2019-02-25T21:15:14.781Z,4.16
2019-02-25T21:17:42.872Z,4.17
2019-02-25T21:20:12.314Z,4.17
2019-02-25T21:22:40.506Z,4.15
2019-02-25T21:25:08.958Z,4.09
2019-02-25T21:27:39.059Z,4.07
2019-02-25T21:30:11.728Z,4.02
2019-02-25T21:32:40.573Z,4.22
2019-02-25T21:35:11.195Z,4.02
2019-02-25T21:37:41.195Z,3.82
2019-02-25T21:40:16.768Z,3.89
2019-02-25T21:46:09.718Z,3.73
2019-02-25T21:48:38.058Z,3.73
2019-02-25T21:51:07.815Z,3.63
2019-02-25T21:53:36.191Z,3.66
2019-02-25T21:56:04.898Z,3.66
2019-02-25T21:58:33.549Z,3.54
2019-02-25T22:01:01.695Z,3.45
2019-02-25T22:03:29.970Z,3.38
2019-02-25T22:06:00.448Z,3.43
2019-02-25T22:08:29.183Z,3.28
2019-02-25T22:10:59.940Z,3.16
2019-02-25T22:13:28.430Z,3.15
2019-02-25T22:15:57.390Z,3.18
2019-02-25T22:18:28.258Z,3.18
2019-02-25T22:20:56.784Z,3.20
2019-02-25T22:23:26.121Z,3.18
2019-02-25T22:25:55.115Z,3.13
2019-02-25T22:28:23.548Z,3.15
2019-02-25T22:30:52.301Z,3.12
2019-02-25T22:33:27.387Z,3.09
2019-02-25T22:35:51.997Z,3.07
2019-02-25T22:38:20.151Z,3.09
2019-02-25T22:40:48.252Z,3.12
2019-02-25T22:43:16.953Z,3.08
2019-02-25T22:45:46.376Z,3.04
2019-02-25T22:48:16.323Z,2.97
2019-02-25T22:50:44.685Z,3.00
2019-02-25T22:53:12.819Z,3.10
2019-02-25T22:55:42.620Z,3.03
2019-02-25T22:58:12.651Z,3.00
2019-02-25T23:00:46.103Z,3.00
2019-02-25T23:03:17.692Z,3.02
2019-02-25T23:05:48.676Z,2.93
2019-02-25T23:08:20.857Z,2.92
2019-02-25T23:10:49.378Z,2.84
2019-02-25T23:13:19.971Z,2.71
2019-02-25T23:15:49.440Z,2.84
2019-02-25T23:18:21.544Z,2.89
2019-02-25T23:20:50.336Z,3.01
2019-02-25T23:23:21.291Z,3.05
2019-02-25T23:25:51.419Z,3.06
2019-02-25T23:28:22.917Z,2.95
2019-02-25T23:30:53.261Z,3.02
2019-02-25T23:33:22.801Z,2.93
2019-02-25T23:35:54.106Z,2.85
2019-02-25T23:38:22.437Z,2.91
2019-02-25T23:40:50.576Z,2.92
2019-02-25T23:43:19.006Z,2.90
2019-02-25T23:45:47.270Z,2.93
2019-02-25T23:48:15.406Z,2.97
2019-02-25T23:50:43.926Z,2.92
2019-02-25T23:53:11.955Z,2.91
2019-02-25T23:55:43.154Z,2.88
2019-02-25T23:58:12.289Z,3.10
